createdAt,value
2018-12-12T00:01:24.511Z,2.30
2018-12-12T00:03:53.394Z,2.20
2018-12-12T00:06:21.929Z,2.20
2018-12-12T00:08:50.370Z,2.10
2018-12-12T00:11:19.478Z,1.90
2018-12-12T00:13:47.913Z,1.90
2018-12-12T00:16:16.370Z,1.90
2018-12-12T00:18:44.818Z,2.00
2018-12-12T00:21:13.254Z,1.90
2018-12-12T00:23:41.702Z,2.00
2018-12-12T00:26:10.151Z,2.00
2018-12-12T00:28:38.593Z,1.90
2018-12-12T00:31:07.058Z,1.90
2018-12-12T00:33:35.498Z,1.90
2018-12-12T00:36:03.947Z,1.90
2018-12-12T00:38:32.392Z,1.90
2018-12-12T00:41:00.826Z,1.90
2018-12-12T00:43:29.259Z,1.90
2018-12-12T00:45:57.698Z,1.90
2018-12-12T00:48:26.146Z,1.90
2018-12-12T00:50:54.586Z,1.90
2018-12-12T00:53:23.063Z,1.90
2018-12-12T00:55:51.517Z,1.90
2018-12-12T00:58:19.954Z,1.90
2018-12-12T01:00:48.514Z,1.90
2018-12-12T01:03:16.958Z,1.90
2018-12-12T01:05:45.419Z,1.80
2018-12-12T01:08:13.862Z,1.90
2018-12-12T01:10:42.330Z,1.90
2018-12-12T01:13:10.762Z,1.90
2018-12-12T01:15:39.346Z,1.90
2018-12-12T01:18:07.790Z,1.90
2018-12-12T01:20:36.227Z,1.90
2018-12-12T01:23:04.773Z,1.80
2018-12-12T01:25:33.215Z,1.80
2018-12-12T01:28:01.676Z,1.70
2018-12-12T01:30:30.122Z,1.80
2018-12-12T01:32:58.586Z,1.80
2018-12-12T01:35:27.018Z,1.70
2018-12-12T01:37:55.455Z,1.70
2018-12-12T01:40:23.901Z,1.70
2018-12-12T01:42:52.369Z,1.60
2018-12-12T01:45:20.809Z,1.70
2018-12-12T01:47:49.258Z,1.50
2018-12-12T01:50:17.702Z,1.50
2018-12-12T01:52:46.422Z,1.50
2018-12-12T01:55:14.882Z,1.50
2018-12-12T01:57:43.326Z,1.50
2018-12-12T02:00:11.765Z,1.50
2018-12-12T02:02:40.213Z,1.50
2018-12-12T02:05:08.650Z,1.60
2018-12-12T02:07:37.098Z,1.60
2018-12-12T02:10:06.386Z,1.70
2018-12-12T02:12:34.862Z,1.60
2018-12-12T02:15:03.522Z,1.60
2018-12-12T02:17:32.094Z,1.50
2018-12-12T02:20:00.527Z,1.60
2018-12-12T02:22:28.970Z,1.50
2018-12-12T02:24:57.405Z,1.50
2018-12-12T02:27:25.853Z,1.50
2018-12-12T02:29:54.293Z,1.50
2018-12-12T02:32:22.739Z,1.50
2018-12-12T02:34:51.179Z,1.50
2018-12-12T02:37:19.646Z,1.50
2018-12-12T02:39:48.091Z,1.50
2018-12-12T02:42:16.531Z,1.50
2018-12-12T02:44:44.974Z,1.50
2018-12-12T02:47:13.430Z,1.50
2018-12-12T02:49:41.897Z,1.50
2018-12-12T02:52:10.351Z,1.40
2018-12-12T02:54:38.787Z,1.50
2018-12-12T02:57:07.242Z,1.40
2018-12-12T02:59:36.006Z,1.40
2018-12-12T03:02:05.178Z,1.40
2018-12-12T03:04:33.626Z,1.40
2018-12-12T03:07:02.074Z,1.30
2018-12-12T03:09:30.542Z,1.40
2018-12-12T03:11:59.039Z,1.40
2018-12-12T03:14:27.586Z,1.40
2018-12-12T03:16:56.029Z,1.40
2018-12-12T03:19:24.473Z,1.40
2018-12-12T03:21:52.923Z,1.40
2018-12-12T03:24:21.363Z,1.40
2018-12-12T03:26:49.806Z,1.30
2018-12-12T03:29:18.248Z,1.30
2018-12-12T03:31:46.701Z,1.30
2018-12-12T03:34:15.154Z,1.30
2018-12-12T03:36:43.605Z,1.30
2018-12-12T03:39:12.045Z,1.30
2018-12-12T03:41:40.490Z,1.30
2018-12-12T03:44:08.949Z,1.30
2018-12-12T03:46:37.404Z,1.20
2018-12-12T03:49:05.859Z,1.30
2018-12-12T03:51:34.307Z,1.30
2018-12-12T03:54:02.850Z,1.30
2018-12-12T03:56:31.325Z,1.20
2018-12-12T03:58:59.896Z,1.20
2018-12-12T04:01:28.346Z,1.20
2018-12-12T04:03:56.786Z,1.20
2018-12-12T04:06:25.370Z,1.30
2018-12-12T04:08:53.820Z,1.20
2018-12-12T04:11:22.276Z,1.20
2018-12-12T04:13:50.726Z,1.20
2018-12-12T04:16:19.408Z,1.20
2018-12-12T04:18:48.196Z,1.10
2018-12-12T04:21:16.632Z,1.10
2018-12-12T04:23:45.066Z,1.10
2018-12-12T04:26:13.519Z,1.10
2018-12-12T04:28:41.970Z,1.10
2018-12-12T04:31:10.421Z,1.10
2018-12-12T04:33:38.870Z,1.10
2018-12-12T04:36:07.446Z,1.10
2018-12-12T04:38:35.882Z,1.10
2018-12-12T04:41:04.345Z,1.10
2018-12-12T04:43:32.803Z,1.10
2018-12-12T04:46:01.378Z,1.00
2018-12-12T04:48:29.834Z,1.00
2018-12-12T04:50:58.282Z,1.00
2018-12-12T04:53:26.729Z,1.00
2018-12-12T04:55:55.171Z,1.00
2018-12-12T04:58:23.629Z,0.90
2018-12-12T05:00:52.074Z,1.00
2018-12-12T05:03:20.534Z,1.10
2018-12-12T05:05:48.986Z,1.10
2018-12-12T05:08:17.433Z,1.00
2018-12-12T05:10:45.879Z,1.00
2018-12-12T05:13:14.318Z,1.00
2018-12-12T05:15:42.890Z,1.00
2018-12-12T05:18:11.330Z,1.00
2018-12-12T05:20:39.759Z,1.00
2018-12-12T05:23:08.197Z,1.00
2018-12-12T05:25:36.674Z,1.00
2018-12-12T05:28:05.125Z,1.10
2018-12-12T05:30:33.562Z,1.00
2018-12-12T05:33:01.998Z,1.10
2018-12-12T05:35:30.442Z,1.00
2018-12-12T05:37:58.905Z,1.00
2018-12-12T05:40:27.496Z,1.00
2018-12-12T05:42:55.930Z,1.00
2018-12-12T05:45:24.734Z,1.00
2018-12-12T05:47:53.186Z,1.00
2018-12-12T05:50:21.649Z,1.00
2018-12-12T05:52:50.087Z,0.90
2018-12-12T05:55:18.562Z,1.00
2018-12-12T05:57:47.022Z,0.90
2018-12-12T06:00:15.722Z,0.90
2018-12-12T06:02:44.226Z,0.90
2018-12-12T06:05:12.694Z,0.90
2018-12-12T06:07:41.146Z,0.80
2018-12-12T06:10:09.745Z,0.80
2018-12-12T06:12:38.193Z,0.70
2018-12-12T06:15:07.790Z,0.70
2018-12-12T06:17:36.690Z,0.80
2018-12-12T06:20:06.276Z,0.80
2018-12-12T06:22:37.851Z,0.90
2018-12-12T06:25:05.564Z,0.80
2018-12-12T06:27:34.005Z,0.80
2018-12-12T06:30:02.578Z,0.80
2018-12-12T06:32:31.175Z,0.80
2018-12-12T06:34:59.622Z,0.80
2018-12-12T06:37:28.083Z,0.80
2018-12-12T06:39:56.534Z,0.80
2018-12-12T06:42:24.970Z,0.80
2018-12-12T06:44:53.414Z,0.80
2018-12-12T06:47:21.857Z,0.80
2018-12-12T06:49:50.301Z,0.80
2018-12-12T06:52:18.775Z,0.90
2018-12-12T06:54:47.245Z,0.90
2018-12-12T06:57:15.690Z,0.80
2018-12-12T06:59:44.140Z,0.90
2018-12-12T07:02:12.760Z,0.90
2018-12-12T07:04:41.337Z,0.90
2018-12-12T07:07:09.813Z,0.90
2018-12-12T07:09:38.254Z,0.90
2018-12-12T07:12:06.709Z,0.90
2018-12-12T07:14:35.161Z,0.90
2018-12-12T07:17:03.641Z,0.90
2018-12-12T07:19:32.366Z,0.80
2018-12-12T07:22:00.817Z,0.90
2018-12-12T07:24:29.258Z,0.80
2018-12-12T07:26:57.720Z,0.90
2018-12-12T07:29:26.172Z,0.80
2018-12-12T07:31:55.101Z,0.80
2018-12-12T07:34:23.547Z,0.90
2018-12-12T07:36:51.994Z,0.90
2018-12-12T07:39:20.443Z,0.90
2018-12-12T07:41:48.946Z,0.80
2018-12-12T07:44:17.411Z,0.90
2018-12-12T07:46:45.998Z,0.90
2018-12-12T07:49:14.673Z,0.90
2018-12-12T07:53:12.564Z,0.90
2018-12-12T07:55:41.027Z,0.90
2018-12-12T07:58:09.478Z,0.90
2018-12-12T08:00:37.941Z,0.90
2018-12-12T08:03:06.584Z,0.90
2018-12-12T08:05:35.160Z,0.90
2018-12-12T08:08:03.627Z,0.90
2018-12-12T08:10:32.085Z,0.80
2018-12-12T08:13:00.546Z,0.90
2018-12-12T08:15:29.014Z,0.90
2018-12-12T08:17:57.489Z,0.90
2018-12-12T08:20:26.105Z,0.90
2018-12-12T08:22:55.786Z,0.90
2018-12-12T08:25:24.480Z,0.90
2018-12-12T08:27:52.916Z,0.90
2018-12-12T08:30:21.362Z,0.90
2018-12-12T08:32:49.817Z,0.90
2018-12-12T08:35:18.291Z,1.00
2018-12-12T08:37:46.822Z,1.00
2018-12-12T08:40:15.282Z,1.00
2018-12-12T08:42:43.718Z,1.00
2018-12-12T08:45:12.170Z,1.00
2018-12-12T08:47:40.622Z,1.00
2018-12-12T08:50:09.233Z,1.00
2018-12-12T08:52:37.677Z,1.00
2018-12-12T08:55:06.630Z,1.00
2018-12-12T08:57:35.082Z,1.00
2018-12-12T09:00:03.787Z,1.10
2018-12-12T09:02:32.257Z,1.10
2018-12-12T09:05:00.698Z,1.10
2018-12-12T09:07:29.149Z,1.10
2018-12-12T09:09:57.600Z,1.10
2018-12-12T09:12:26.042Z,1.10
2018-12-12T09:14:54.494Z,1.20
2018-12-12T09:17:22.934Z,1.20
2018-12-12T09:19:51.379Z,1.20
2018-12-12T09:22:19.826Z,1.20
2018-12-12T09:24:48.261Z,1.20
2018-12-12T09:27:16.710Z,1.20
2018-12-12T09:29:45.162Z,1.10
2018-12-12T09:32:13.614Z,1.20
2018-12-12T09:34:42.059Z,1.20
2018-12-12T09:37:10.535Z,1.20
2018-12-12T09:39:39.002Z,1.30
2018-12-12T09:42:07.495Z,1.30
2018-12-12T09:44:35.951Z,1.30
2018-12-12T09:47:04.398Z,1.30
2018-12-12T09:49:32.896Z,1.30
2018-12-12T09:52:01.353Z,1.40
2018-12-12T09:54:29.802Z,1.30
2018-12-12T09:58:27.435Z,1.30
2018-12-12T10:00:55.874Z,1.30
2018-12-12T10:03:24.326Z,1.40
2018-12-12T10:05:52.782Z,1.40
2018-12-12T10:08:21.229Z,1.30
2018-12-12T10:10:49.670Z,1.30
2018-12-12T10:13:18.126Z,1.30
2018-12-12T10:15:46.586Z,1.30
2018-12-12T10:18:15.037Z,1.20
2018-12-12T10:20:43.491Z,1.30
2018-12-12T10:23:12.061Z,1.30
2018-12-12T10:25:40.510Z,1.30
2018-12-12T10:28:08.971Z,1.40
2018-12-12T10:30:37.440Z,1.30
2018-12-12T10:33:05.982Z,1.30
2018-12-12T10:35:34.431Z,1.40
2018-12-12T10:38:02.998Z,1.30
2018-12-12T10:40:32.894Z,1.40
2018-12-12T10:43:01.492Z,1.40
2018-12-12T10:45:29.964Z,1.40
2018-12-12T10:47:58.410Z,1.40
2018-12-12T10:50:26.846Z,1.40
2018-12-12T10:52:55.318Z,1.50
2018-12-12T10:55:23.808Z,1.60
2018-12-12T10:57:52.389Z,1.60
2018-12-12T11:00:20.846Z,1.60
2018-12-12T11:02:53.550Z,1.60
2018-12-12T11:05:22.327Z,1.60
2018-12-12T11:07:50.782Z,1.60
2018-12-12T11:10:19.225Z,1.60
2018-12-12T11:12:47.670Z,1.60
2018-12-12T11:15:16.126Z,1.70
2018-12-12T11:17:44.724Z,1.70
2018-12-12T11:20:13.202Z,1.70
2018-12-12T11:22:41.655Z,1.70
2018-12-12T11:25:10.089Z,1.70
2018-12-12T11:27:38.543Z,1.80
2018-12-12T11:30:07.329Z,1.70
2018-12-12T11:32:35.801Z,1.80
2018-12-12T11:35:04.535Z,1.80
2018-12-12T11:37:32.994Z,1.80
2018-12-12T11:40:01.453Z,1.80
2018-12-12T11:42:29.909Z,1.80
2018-12-12T11:44:58.357Z,1.80
2018-12-12T11:47:26.798Z,1.80
2018-12-12T11:49:55.264Z,1.80
2018-12-12T11:52:23.830Z,1.90
2018-12-12T11:54:52.274Z,1.80
2018-12-12T11:57:21.041Z,1.80
2018-12-12T11:59:49.487Z,1.80
2018-12-12T12:02:17.929Z,1.80
2018-12-12T12:04:46.395Z,1.90
2018-12-12T12:07:14.829Z,1.90
2018-12-12T12:09:43.282Z,1.90
2018-12-12T12:12:11.734Z,1.90
2018-12-12T12:14:40.199Z,1.90
2018-12-12T12:17:08.643Z,1.90
2018-12-12T12:19:37.085Z,1.90
2018-12-12T12:22:05.529Z,1.90
2018-12-12T12:24:33.967Z,2.00
2018-12-12T12:27:02.405Z,1.90
2018-12-12T12:29:30.869Z,1.90
2018-12-12T12:31:59.330Z,1.90
2018-12-12T12:34:27.771Z,1.90
2018-12-12T12:36:56.222Z,1.90
2018-12-12T12:39:24.671Z,1.90
2018-12-12T12:41:53.110Z,1.90
2018-12-12T12:44:21.559Z,1.90
2018-12-12T12:46:50.003Z,2.00
2018-12-12T12:49:18.455Z,1.90
2018-12-12T12:51:46.886Z,1.90
2018-12-12T12:54:15.338Z,1.80
2018-12-12T12:56:43.792Z,1.80
2018-12-12T12:59:12.238Z,1.80
2018-12-12T13:01:40.687Z,1.90
2018-12-12T13:04:09.845Z,1.90
2018-12-12T13:06:38.501Z,1.90
2018-12-12T13:09:08.075Z,1.80
2018-12-12T13:11:36.531Z,1.80
2018-12-12T13:14:05.075Z,1.70
2018-12-12T13:16:33.550Z,1.70
2018-12-12T13:19:02.002Z,1.70
2018-12-12T13:21:30.457Z,1.70
2018-12-12T13:23:58.902Z,1.60
2018-12-12T13:26:27.338Z,1.60
2018-12-12T13:28:55.787Z,1.60
2018-12-12T13:31:24.248Z,1.60
2018-12-12T13:33:52.730Z,1.60
2018-12-12T13:36:21.187Z,1.50
2018-12-12T13:38:49.754Z,1.60
2018-12-12T13:41:18.203Z,1.50
2018-12-12T13:43:46.653Z,1.50
2018-12-12T13:46:15.094Z,1.50
2018-12-12T13:48:43.541Z,1.50
2018-12-12T13:51:11.995Z,1.50
2018-12-12T13:53:40.433Z,1.50
2018-12-12T13:56:08.958Z,1.50
2018-12-12T13:58:37.397Z,1.60
2018-12-12T14:01:05.963Z,1.50
2018-12-12T14:03:34.418Z,1.50
2018-12-12T14:06:03.015Z,1.40
2018-12-12T14:08:31.527Z,1.40
2018-12-12T14:10:59.965Z,1.40
2018-12-12T14:13:28.426Z,1.40
2018-12-12T14:15:56.883Z,1.50
2018-12-12T14:18:25.320Z,1.40
2018-12-12T14:20:53.774Z,1.40
2018-12-12T14:23:22.210Z,1.40
2018-12-12T14:25:50.837Z,1.40
2018-12-12T14:28:19.339Z,1.40
2018-12-12T14:30:47.810Z,1.40
2018-12-12T14:33:16.266Z,1.40
2018-12-12T14:35:44.721Z,1.40
2018-12-12T14:38:13.182Z,1.40
2018-12-12T14:40:41.637Z,1.40
2018-12-12T14:43:10.549Z,1.40
2018-12-12T14:45:39.004Z,1.40
2018-12-12T14:48:07.478Z,1.40
2018-12-12T14:50:35.932Z,1.40
2018-12-12T14:53:04.422Z,1.40
2018-12-12T14:55:32.862Z,1.40
2018-12-12T14:58:01.306Z,1.40
2018-12-12T15:00:29.906Z,1.50
2018-12-12T15:02:58.364Z,1.50
2018-12-12T15:05:26.854Z,1.50
2018-12-12T15:07:55.307Z,1.50
2018-12-12T15:10:23.755Z,1.50
2018-12-12T15:12:52.211Z,1.50
2018-12-12T15:15:20.670Z,1.50
2018-12-12T15:17:49.354Z,1.50
2018-12-12T15:20:17.808Z,1.50
2018-12-12T15:22:46.271Z,1.50
2018-12-12T15:25:14.721Z,1.50
2018-12-12T15:27:43.168Z,1.50
2018-12-12T15:30:11.761Z,1.50
2018-12-12T15:32:40.229Z,1.50
2018-12-12T15:35:08.746Z,1.50
2018-12-12T15:37:37.222Z,1.50
2018-12-12T15:40:06.307Z,1.40
2018-12-12T15:42:34.767Z,1.50
2018-12-12T15:45:03.845Z,1.50
2018-12-12T15:47:32.302Z,1.50
2018-12-12T15:50:00.769Z,1.50
2018-12-12T15:52:29.239Z,1.50
2018-12-12T15:54:57.690Z,1.40
2018-12-12T15:57:26.134Z,1.50
2018-12-12T15:59:54.606Z,1.40
2018-12-12T16:02:23.054Z,1.40
2018-12-12T16:04:51.509Z,1.40
2018-12-12T16:07:20.029Z,1.50
2018-12-12T16:09:48.594Z,1.50
2018-12-12T16:12:17.037Z,1.50
2018-12-12T16:14:45.474Z,1.50
2018-12-12T16:17:13.929Z,1.50
2018-12-12T16:19:42.367Z,1.50
2018-12-12T16:22:10.842Z,1.50
2018-12-12T16:24:39.287Z,1.50
2018-12-12T16:27:07.732Z,1.50
2018-12-12T16:29:36.174Z,1.50
2018-12-12T16:32:04.622Z,1.50
2018-12-12T16:34:33.069Z,1.50
2018-12-12T16:37:01.655Z,1.50
2018-12-12T16:39:30.098Z,1.50
2018-12-12T16:41:58.541Z,1.50
2018-12-12T16:44:26.981Z,1.50
2018-12-12T16:46:55.432Z,1.50
2018-12-12T16:49:24.010Z,1.50
2018-12-12T16:51:52.537Z,1.50
2018-12-12T16:54:21.114Z,1.50
2018-12-12T16:56:49.554Z,1.50
2018-12-12T16:59:18.010Z,1.50
2018-12-12T17:01:46.455Z,1.50
2018-12-12T17:04:14.898Z,1.50
2018-12-12T17:06:43.338Z,1.50
2018-12-12T17:09:11.822Z,1.60
2018-12-12T17:11:40.274Z,1.60
2018-12-12T17:14:09.570Z,1.60
2018-12-12T17:16:38.014Z,1.60
2018-12-12T17:19:06.464Z,1.60
2018-12-12T17:21:34.928Z,1.50
2018-12-12T17:24:03.383Z,1.60
2018-12-12T17:26:31.875Z,1.60
2018-12-12T17:29:00.324Z,1.60
2018-12-12T17:31:28.785Z,1.60
2018-12-12T17:33:57.238Z,1.50
2018-12-12T17:36:25.686Z,1.50
2018-12-12T17:38:54.126Z,1.50
2018-12-12T17:41:22.576Z,1.50
2018-12-12T17:43:51.166Z,1.50
2018-12-12T17:46:19.622Z,1.60
2018-12-12T17:48:48.076Z,1.50
2018-12-12T17:51:16.530Z,1.50
2018-12-12T17:53:44.984Z,1.50
2018-12-12T17:56:13.806Z,1.50
2018-12-12T17:58:42.257Z,1.60
2018-12-12T18:01:10.841Z,1.60
2018-12-12T18:03:39.281Z,1.60
2018-12-12T18:06:07.808Z,1.60
2018-12-12T18:08:36.259Z,1.60
2018-12-12T18:11:04.886Z,1.60
2018-12-12T18:13:33.378Z,1.60
2018-12-12T18:16:01.871Z,1.50
2018-12-12T18:18:30.410Z,1.50
2018-12-12T18:20:58.986Z,1.60
2018-12-12T18:23:27.423Z,1.50
2018-12-12T18:25:55.923Z,1.50
2018-12-12T18:28:24.370Z,1.50
2018-12-12T18:30:52.813Z,1.40
2018-12-12T18:33:21.259Z,1.40
2018-12-12T18:35:49.702Z,1.40
2018-12-12T18:38:18.179Z,1.40
2018-12-12T18:40:46.635Z,1.40
2018-12-12T18:43:15.094Z,1.40
2018-12-12T18:45:43.550Z,1.40
2018-12-12T18:48:12.022Z,1.40
2018-12-12T18:50:40.474Z,1.40
2018-12-12T18:53:08.966Z,1.40
2018-12-12T18:55:37.447Z,1.50
2018-12-12T18:58:05.890Z,1.50
2018-12-12T19:00:34.339Z,1.40
2018-12-12T19:03:02.825Z,1.50
2018-12-12T19:05:31.298Z,1.50
2018-12-12T19:07:59.754Z,1.40
2018-12-12T19:10:28.222Z,1.50
2018-12-12T19:12:56.666Z,1.50
2018-12-12T19:15:25.121Z,1.50
2018-12-12T19:17:53.570Z,1.50
2018-12-12T19:20:22.013Z,1.50
2018-12-12T19:22:50.462Z,1.50
2018-12-12T19:25:18.958Z,1.50
2018-12-12T19:27:47.438Z,1.50
2018-12-12T19:30:15.906Z,1.50
2018-12-12T19:32:44.348Z,1.50
2018-12-12T19:35:12.809Z,1.50
2018-12-12T19:37:41.253Z,1.50
2018-12-12T19:40:09.958Z,1.50
2018-12-12T19:42:38.422Z,1.50
2018-12-12T19:45:07.825Z,1.50
2018-12-12T19:47:36.288Z,1.50
2018-12-12T19:50:05.583Z,1.50
2018-12-12T19:52:34.159Z,1.50
2018-12-12T19:55:02.615Z,1.50
2018-12-12T19:57:31.077Z,1.50
2018-12-12T19:59:59.521Z,1.50
2018-12-12T20:02:27.998Z,1.50
2018-12-12T20:04:56.487Z,1.50
2018-12-12T20:07:24.949Z,1.50
2018-12-12T20:09:53.406Z,1.50
2018-12-12T20:12:21.867Z,1.50
2018-12-12T20:14:50.312Z,1.50
2018-12-12T20:17:18.794Z,1.40
2018-12-12T20:19:47.262Z,1.40
2018-12-12T20:22:15.882Z,1.40
2018-12-12T20:24:44.321Z,1.40
2018-12-12T20:27:12.763Z,1.40
2018-12-12T20:29:41.220Z,1.30
2018-12-12T20:32:09.671Z,1.40
2018-12-12T20:34:38.130Z,1.40
2018-12-12T20:37:06.574Z,1.30
2018-12-12T20:39:35.070Z,1.30
2018-12-12T20:42:03.531Z,1.30
2018-12-12T20:44:32.037Z,1.30
2018-12-12T20:47:00.478Z,1.30
2018-12-12T20:49:28.931Z,1.30
2018-12-12T20:51:57.382Z,1.30
2018-12-12T20:54:25.846Z,1.20
2018-12-12T20:56:54.298Z,1.20
2018-12-12T20:59:22.740Z,1.20
2018-12-12T21:01:51.185Z,1.20
2018-12-12T21:04:19.622Z,1.20
2018-12-12T21:06:48.077Z,1.20
2018-12-12T21:09:16.585Z,1.20
2018-12-12T21:11:45.032Z,1.30
2018-12-12T21:14:13.478Z,1.20
2018-12-12T21:16:41.929Z,1.20
2018-12-12T21:19:10.369Z,1.30
2018-12-12T21:21:38.826Z,1.20
2018-12-12T21:24:07.272Z,1.20
2018-12-12T21:26:35.731Z,1.20
2018-12-12T21:29:04.174Z,1.20
2018-12-12T21:31:32.619Z,1.20
2018-12-12T21:34:01.054Z,1.20
2018-12-12T21:36:29.505Z,1.10
2018-12-12T21:38:57.946Z,1.20
2018-12-12T21:41:26.393Z,1.10
2018-12-12T21:43:54.858Z,1.10
2018-12-12T21:46:23.298Z,1.10
2018-12-12T21:48:51.741Z,1.10
2018-12-12T21:51:20.199Z,1.10
2018-12-12T21:53:48.642Z,1.00
2018-12-12T21:56:17.219Z,1.10
2018-12-12T21:58:45.674Z,1.10
2018-12-12T22:01:14.123Z,1.10
2018-12-12T22:03:42.706Z,1.10
2018-12-12T22:06:11.142Z,1.10
2018-12-12T22:08:39.590Z,1.10
2018-12-12T22:11:08.046Z,1.00
2018-12-12T22:13:36.627Z,1.00
2018-12-12T22:16:05.078Z,1.00
2018-12-12T22:18:33.538Z,1.00
2018-12-12T22:21:01.989Z,1.00
2018-12-12T22:23:30.449Z,0.90
2018-12-12T22:25:58.881Z,1.00
2018-12-12T22:28:27.319Z,1.00
2018-12-12T22:30:55.761Z,0.90
2018-12-12T22:33:24.214Z,1.00
2018-12-12T22:35:52.661Z,1.00
2018-12-12T22:38:21.100Z,0.90
2018-12-12T22:40:49.549Z,0.90
2018-12-12T22:43:18.003Z,0.90
2018-12-12T22:45:46.458Z,0.90
2018-12-12T22:48:20.572Z,1.00
2018-12-12T22:50:45.514Z,0.90
2018-12-12T22:53:13.975Z,0.90
2018-12-12T22:55:42.418Z,0.90
2018-12-12T22:58:10.884Z,1.00
2018-12-12T23:00:40.304Z,1.00
2018-12-12T23:03:08.752Z,1.00
2018-12-12T23:05:37.194Z,0.90
2018-12-12T23:08:05.680Z,1.00
2018-12-12T23:10:34.119Z,1.00
2018-12-12T23:13:02.560Z,0.90
2018-12-12T23:15:31.005Z,0.90
2018-12-12T23:17:59.446Z,0.90
2018-12-12T23:20:27.881Z,0.90
2018-12-12T23:22:56.352Z,0.90
2018-12-12T23:25:24.784Z,0.90
2018-12-12T23:27:53.211Z,0.80
2018-12-12T23:30:21.647Z,0.80
2018-12-12T23:32:50.098Z,0.90
2018-12-12T23:35:18.577Z,0.90
2018-12-12T23:37:47.021Z,1.00
2018-12-12T23:40:15.474Z,0.90
2018-12-12T23:42:43.918Z,0.90
2018-12-12T23:45:12.382Z,0.90
2018-12-12T23:47:40.831Z,0.90
2018-12-12T23:50:09.418Z,0.90
2018-12-12T23:52:37.868Z,0.90
2018-12-12T23:55:06.459Z,0.90
2018-12-12T23:57:34.919Z,0.90
